sensor_id;sensor_type;location;lat;lon;timestamp;P1;durP1;ratioP1;P2;durP2;ratioP2
14326;SDS011;7247;53.330;-1.180;2024-02-26T00:02:24;16.20;;;8.73;;
14326;SDS011;7247;53.330;-1.180;2024-02-26T00:04:50;12.67;;;8.23;;
14326;SDS011;7247;53.330;-1.180;2024-02-26T00:07:17;13.37;;;8.60;;
14326;SDS011;7247;53.330;-1.180;2024-02-26T00:09:43;12.13;;;8.10;;
14326;SDS011;7247;53.330;-1.180;2024-02-26T00:12:10;13.43;;;7.73;;
14326;SDS011;7247;53.330;-1.180;2024-02-26T00:14:36;13.00;;;8.57;;
14326;SDS011;7247;53.330;-1.180;2024-02-26T00:17:02;10.20;;;7.53;;
14326;SDS011;7247;53.330;-1.180;2024-02-26T00:19:30;13.03;;;8.33;;
14326;SDS011;7247;53.330;-1.180;2024-02-26T00:21:57;16.37;;;8.03;;
14326;SDS011;7247;53.330;-1.180;2024-02-26T00:24:23;14.27;;;7.57;;
14326;SDS011;7247;53.330;-1.180;2024-02-26T00:26:50;13.70;;;7.73;;
14326;SDS011;7247;53.330;-1.180;2024-02-26T00:29:19;10.90;;;7.70;;
14326;SDS011;7247;53.330;-1.180;2024-02-26T00:31:46;13.10;;;7.67;;
14326;SDS011;7247;53.330;-1.180;2024-02-26T00:34:13;10.80;;;7.33;;
14326;SDS011;7247;53.330;-1.180;2024-02-26T00:36:41;13.03;;;7.27;;
14326;SDS011;7247;53.330;-1.180;2024-02-26T00:39:07;9.20;;;6.33;;
14326;SDS011;7247;53.330;-1.180;2024-02-26T00:41:37;9.90;;;7.00;;
14326;SDS011;7247;53.330;-1.180;2024-02-26T00:44:04;11.50;;;7.70;;
14326;SDS011;7247;53.330;-1.180;2024-02-26T00:46:30;11.67;;;6.83;;
14326;SDS011;7247;53.330;-1.180;2024-02-26T00:48:57;9.83;;;6.83;;
14326;SDS011;7247;53.330;-1.180;2024-02-26T00:51:23;9.10;;;6.90;;
14326;SDS011;7247;53.330;-1.180;2024-02-26T00:53:51;14.63;;;7.87;;
14326;SDS011;7247;53.330;-1.180;2024-02-26T00:56:17;12.40;;;7.70;;
14326;SDS011;7247;53.330;-1.180;2024-02-26T00:58:44;14.87;;;7.97;;
14326;SDS011;7247;53.330;-1.180;2024-02-26T01:01:10;12.03;;;7.40;;
14326;SDS011;7247;53.330;-1.180;2024-02-26T01:03:37;11.53;;;7.47;;
14326;SDS011;7247;53.330;-1.180;2024-02-26T01:06:03;15.73;;;7.40;;
14326;SDS011;7247;53.330;-1.180;2024-02-26T01:08:30;9.97;;;7.20;;
14326;SDS011;7247;53.330;-1.180;2024-02-26T01:10:58;12.63;;;7.43;;
14326;SDS011;7247;53.330;-1.180;2024-02-26T01:13:24;16.37;;;7.70;;
14326;SDS011;7247;53.330;-1.180;2024-02-26T01:15:51;13.10;;;6.93;;
14326;SDS011;7247;53.330;-1.180;2024-02-26T01:18:17;14.87;;;7.30;;
14326;SDS011;7247;53.330;-1.180;2024-02-26T01:20:43;10.13;;;6.20;;
14326;SDS011;7247;53.330;-1.180;2024-02-26T01:23:10;11.93;;;6.30;;
14326;SDS011;7247;53.330;-1.180;2024-02-26T01:25:36;11.10;;;6.27;;
14326;SDS011;7247;53.330;-1.180;2024-02-26T01:28:05;9.97;;;6.03;;
14326;SDS011;7247;53.330;-1.180;2024-02-26T01:30:32;11.03;;;6.10;;
14326;SDS011;7247;53.330;-1.180;2024-02-26T01:32:58;8.57;;;5.80;;
14326;SDS011;7247;53.330;-1.180;2024-02-26T01:35:25;9.10;;;6.10;;
14326;SDS011;7247;53.330;-1.180;2024-02-26T01:37:51;11.47;;;6.30;;
14326;SDS011;7247;53.330;-1.180;2024-02-26T01:40:17;7.87;;;5.97;;
14326;SDS011;7247;53.330;-1.180;2024-02-26T01:42:45;12.63;;;6.23;;
14326;SDS011;7247;53.330;-1.180;2024-02-26T01:45:14;9.83;;;5.27;;
14326;SDS011;7247;53.330;-1.180;2024-02-26T01:47:46;9.73;;;5.63;;
14326;SDS011;7247;53.330;-1.180;2024-02-26T01:50:12;9.07;;;5.30;;
14326;SDS011;7247;53.330;-1.180;2024-02-26T01:52:39;7.93;;;5.03;;
14326;SDS011;7247;53.330;-1.180;2024-02-26T01:55:06;10.37;;;5.60;;
14326;SDS011;7247;53.330;-1.180;2024-02-26T01:57:33;9.13;;;5.37;;
14326;SDS011;7247;53.330;-1.180;2024-02-26T02:00:00;9.23;;;5.17;;
14326;SDS011;7247;53.330;-1.180;2024-02-26T02:02:32;10.77;;;4.77;;
14326;SDS011;7247;53.330;-1.180;2024-02-26T02:04:58;10.10;;;5.23;;
14326;SDS011;7247;53.330;-1.180;2024-02-26T02:07:25;8.77;;;4.97;;
14326;SDS011;7247;53.330;-1.180;2024-02-26T02:09:52;7.63;;;4.33;;
14326;SDS011;7247;53.330;-1.180;2024-02-26T02:12:19;10.40;;;4.57;;
14326;SDS011;7247;53.330;-1.180;2024-02-26T02:14:45;14.43;;;3.73;;
14326;SDS011;7247;53.330;-1.180;2024-02-26T02:17:12;8.83;;;4.07;;
14326;SDS011;7247;53.330;-1.180;2024-02-26T02:19:40;10.27;;;4.20;;
14326;SDS011;7247;53.330;-1.180;2024-02-26T02:22:07;8.63;;;3.50;;
14326;SDS011;7247;53.330;-1.180;2024-02-26T02:24:34;7.77;;;3.80;;
14326;SDS011;7247;53.330;-1.180;2024-02-26T02:27:00;10.33;;;3.50;;
14326;SDS011;7247;53.330;-1.180;2024-02-26T02:29:27;5.23;;;3.47;;
14326;SDS011;7247;53.330;-1.180;2024-02-26T02:31:54;7.47;;;3.90;;
14326;SDS011;7247;53.330;-1.180;2024-02-26T02:34:20;8.13;;;4.00;;
14326;SDS011;7247;53.330;-1.180;2024-02-26T02:36:51;5.60;;;3.20;;
14326;SDS011;7247;53.330;-1.180;2024-02-26T02:39:19;6.80;;;3.23;;
14326;SDS011;7247;53.330;-1.180;2024-02-26T02:41:45;6.47;;;3.40;;
14326;SDS011;7247;53.330;-1.180;2024-02-26T02:44:12;8.17;;;3.40;;
14326;SDS011;7247;53.330;-1.180;2024-02-26T02:46:38;6.17;;;3.40;;
14326;SDS011;7247;53.330;-1.180;2024-02-26T02:49:07;7.77;;;3.10;;
14326;SDS011;7247;53.330;-1.180;2024-02-26T02:51:34;7.93;;;3.50;;
14326;SDS011;7247;53.330;-1.180;2024-02-26T02:54:00;6.17;;;3.40;;
14326;SDS011;7247;53.330;-1.180;2024-02-26T02:56:28;7.00;;;3.50;;
14326;SDS011;7247;53.330;-1.180;2024-02-26T02:58:55;5.03;;;3.57;;
14326;SDS011;7247;53.330;-1.180;2024-02-26T03:01:21;8.13;;;3.83;;
14326;SDS011;7247;53.330;-1.180;2024-02-26T03:03:48;8.63;;;3.43;;
14326;SDS011;7247;53.330;-1.180;2024-02-26T03:06:16;8.53;;;4.33;;
14326;SDS011;7247;53.330;-1.180;2024-02-26T03:08:42;7.97;;;4.20;;
14326;SDS011;7247;53.330;-1.180;2024-02-26T03:11:12;9.83;;;5.03;;
14326;SDS011;7247;53.330;-1.180;2024-02-26T03:13:40;11.13;;;4.60;;
14326;SDS011;7247;53.330;-1.180;2024-02-26T03:16:07;12.97;;;4.13;;
14326;SDS011;7247;53.330;-1.180;2024-02-26T03:18:33;7.20;;;3.73;;
14326;SDS011;7247;53.330;-1.180;2024-02-26T03:21:00;10.53;;;3.90;;
14326;SDS011;7247;53.330;-1.180;2024-02-26T03:23:27;10.30;;;3.93;;
14326;SDS011;7247;53.330;-1.180;2024-02-26T03:25:54;7.20;;;3.10;;
14326;SDS011;7247;53.330;-1.180;2024-02-26T03:28:21;7.70;;;2.40;;
14326;SDS011;7247;53.330;-1.180;2024-02-26T03:30:49;11.87;;;2.83;;
14326;SDS011;7247;53.330;-1.180;2024-02-26T03:33:15;8.97;;;2.80;;
14326;SDS011;7247;53.330;-1.180;2024-02-26T03:35:42;5.97;;;2.10;;
14326;SDS011;7247;53.330;-1.180;2024-02-26T03:38:08;5.00;;;2.33;;
14326;SDS011;7247;53.330;-1.180;2024-02-26T03:40:35;9.40;;;2.53;;
14326;SDS011;7247;53.330;-1.180;2024-02-26T03:43:01;5.87;;;2.17;;
14326;SDS011;7247;53.330;-1.180;2024-02-26T03:45:29;5.80;;;2.40;;
14326;SDS011;7247;53.330;-1.180;2024-02-26T03:47:57;9.27;;;2.80;;
14326;SDS011;7247;53.330;-1.180;2024-02-26T03:50:24;5.97;;;2.50;;
14326;SDS011;7247;53.330;-1.180;2024-02-26T03:52:50;8.03;;;2.37;;
14326;SDS011;7247;53.330;-1.180;2024-02-26T03:55:17;6.23;;;2.57;;
14326;SDS011;7247;53.330;-1.180;2024-02-26T03:57:46;4.47;;;2.60;;
14326;SDS011;7247;53.330;-1.180;2024-02-26T04:00:13;6.23;;;2.60;;
14326;SDS011;7247;53.330;-1.180;2024-02-26T04:02:39;5.43;;;2.40;;
14326;SDS011;7247;53.330;-1.180;2024-02-26T04:05:10;6.70;;;2.10;;
14326;SDS011;7247;53.330;-1.180;2024-02-26T04:07:36;7.40;;;2.30;;
14326;SDS011;7247;53.330;-1.180;2024-02-26T04:10:03;8.77;;;2.50;;
14326;SDS011;7247;53.330;-1.180;2024-02-26T04:12:30;6.03;;;2.50;;
14326;SDS011;7247;53.330;-1.180;2024-02-26T04:14:56;7.77;;;2.90;;
14326;SDS011;7247;53.330;-1.180;2024-02-26T04:17:23;5.87;;;2.20;;
14326;SDS011;7247;53.330;-1.180;2024-02-26T04:19:50;7.70;;;2.50;;
14326;SDS011;7247;53.330;-1.180;2024-02-26T04:22:18;4.23;;;1.53;;
14326;SDS011;7247;53.330;-1.180;2024-02-26T04:24:44;8.00;;;1.93;;
14326;SDS011;7247;53.330;-1.180;2024-02-26T04:27:11;6.07;;;1.87;;
14326;SDS011;7247;53.330;-1.180;2024-02-26T04:29:37;4.63;;;1.67;;
14326;SDS011;7247;53.330;-1.180;2024-02-26T04:32:04;6.27;;;1.87;;
14326;SDS011;7247;53.330;-1.180;2024-02-26T04:34:30;8.67;;;3.03;;
14326;SDS011;7247;53.330;-1.180;2024-02-26T04:36:57;6.97;;;2.10;;
14326;SDS011;7247;53.330;-1.180;2024-02-26T04:39:25;6.90;;;2.20;;
14326;SDS011;7247;53.330;-1.180;2024-02-26T04:41:52;6.07;;;1.77;;
14326;SDS011;7247;53.330;-1.180;2024-02-26T04:44:18;4.00;;;1.93;;
14326;SDS011;7247;53.330;-1.180;2024-02-26T04:46:45;4.63;;;2.03;;
14326;SDS011;7247;53.330;-1.180;2024-02-26T04:49:11;8.47;;;2.20;;
14326;SDS011;7247;53.330;-1.180;2024-02-26T04:51:38;3.43;;;1.87;;
14326;SDS011;7247;53.330;-1.180;2024-02-26T04:54:04;9.43;;;1.77;;
14326;SDS011;7247;53.330;-1.180;2024-02-26T04:56:32;5.00;;;1.70;;
14326;SDS011;7247;53.330;-1.180;2024-02-26T04:58:58;7.07;;;1.90;;
14326;SDS011;7247;53.330;-1.180;2024-02-26T05:01:25;5.43;;;2.10;;
14326;SDS011;7247;53.330;-1.180;2024-02-26T05:03:51;4.43;;;1.67;;
14326;SDS011;7247;53.330;-1.180;2024-02-26T05:06:18;5.67;;;1.77;;
14326;SDS011;7247;53.330;-1.180;2024-02-26T05:08:44;7.03;;;2.00;;
14326;SDS011;7247;53.330;-1.180;2024-02-26T05:11:11;6.33;;;1.90;;
14326;SDS011;7247;53.330;-1.180;2024-02-26T05:13:39;5.00;;;1.90;;
14326;SDS011;7247;53.330;-1.180;2024-02-26T05:16:05;5.77;;;2.07;;
14326;SDS011;7247;53.330;-1.180;2024-02-26T05:18:31;5.50;;;2.23;;
14326;SDS011;7247;53.330;-1.180;2024-02-26T05:20:57;9.10;;;2.00;;
14326;SDS011;7247;53.330;-1.180;2024-02-26T05:23:24;6.73;;;2.20;;
14326;SDS011;7247;53.330;-1.180;2024-02-26T05:25:50;4.40;;;1.80;;
14326;SDS011;7247;53.330;-1.180;2024-02-26T05:28:17;4.00;;;1.80;;
14326;SDS011;7247;53.330;-1.180;2024-02-26T05:30:47;5.87;;;2.00;;
14326;SDS011;7247;53.330;-1.180;2024-02-26T05:33:13;7.27;;;1.70;;
14326;SDS011;7247;53.330;-1.180;2024-02-26T05:35:39;4.60;;;1.90;;
14326;SDS011;7247;53.330;-1.180;2024-02-26T05:38:06;7.87;;;2.20;;
14326;SDS011;7247;53.330;-1.180;2024-02-26T05:40:32;7.33;;;1.90;;
14326;SDS011;7247;53.330;-1.180;2024-02-26T05:42:59;5.10;;;1.90;;
14326;SDS011;7247;53.330;-1.180;2024-02-26T05:45:25;2.93;;;1.70;;
14326;SDS011;7247;53.330;-1.180;2024-02-26T05:47:53;7.57;;;1.97;;
14326;SDS011;7247;53.330;-1.180;2024-02-26T05:50:20;4.30;;;1.97;;
14326;SDS011;7247;53.330;-1.180;2024-02-26T05:52:46;5.13;;;1.97;;
14326;SDS011;7247;53.330;-1.180;2024-02-26T05:55:13;5.17;;;1.70;;
14326;SDS011;7247;53.330;-1.180;2024-02-26T05:57:39;5.27;;;1.80;;
14326;SDS011;7247;53.330;-1.180;2024-02-26T06:00:06;4.60;;;1.80;;
14326;SDS011;7247;53.330;-1.180;2024-02-26T06:02:33;6.50;;;1.70;;
14326;SDS011;7247;53.330;-1.180;2024-02-26T06:05:01;5.37;;;1.60;;
14326;SDS011;7247;53.330;-1.180;2024-02-26T06:07:28;5.27;;;1.70;;
14326;SDS011;7247;53.330;-1.180;2024-02-26T06:09:54;4.37;;;1.40;;
14326;SDS011;7247;53.330;-1.180;2024-02-26T06:12:21;5.70;;;1.63;;
14326;SDS011;7247;53.330;-1.180;2024-02-26T06:14:47;7.30;;;1.80;;
14326;SDS011;7247;53.330;-1.180;2024-02-26T06:17:14;4.57;;;1.73;;
14326;SDS011;7247;53.330;-1.180;2024-02-26T06:19:40;3.63;;;1.97;;
14326;SDS011;7247;53.330;-1.180;2024-02-26T06:22:08;6.07;;;2.00;;
14326;SDS011;7247;53.330;-1.180;2024-02-26T06:24:35;3.60;;;1.97;;
14326;SDS011;7247;53.330;-1.180;2024-02-26T06:27:02;6.23;;;2.00;;
14326;SDS011;7247;53.330;-1.180;2024-02-26T06:29:28;4.33;;;2.00;;
14326;SDS011;7247;53.330;-1.180;2024-02-26T06:31:55;5.97;;;1.70;;
14326;SDS011;7247;53.330;-1.180;2024-02-26T06:34:21;3.80;;;1.97;;
14326;SDS011;7247;53.330;-1.180;2024-02-26T06:36:48;4.33;;;2.00;;
14326;SDS011;7247;53.330;-1.180;2024-02-26T06:39:16;5.77;;;1.70;;
14326;SDS011;7247;53.330;-1.180;2024-02-26T06:41:43;3.97;;;2.00;;
14326;SDS011;7247;53.330;-1.180;2024-02-26T06:44:11;6.10;;;1.90;;
14326;SDS011;7247;53.330;-1.180;2024-02-26T06:46:38;3.60;;;1.57;;
14326;SDS011;7247;53.330;-1.180;2024-02-26T06:49:04;2.87;;;1.80;;
14326;SDS011;7247;53.330;-1.180;2024-02-26T06:51:31;4.73;;;1.50;;
14326;SDS011;7247;53.330;-1.180;2024-02-26T06:53:57;3.53;;;1.67;;
14326;SDS011;7247;53.330;-1.180;2024-02-26T06:56:25;4.00;;;1.50;;
14326;SDS011;7247;53.330;-1.180;2024-02-26T06:58:52;1.70;;;1.40;;
14326;SDS011;7247;53.330;-1.180;2024-02-26T07:01:18;7.13;;;1.87;;
14326;SDS011;7247;53.330;-1.180;2024-02-26T07:03:44;4.40;;;1.40;;
14326;SDS011;7247;53.330;-1.180;2024-02-26T07:06:11;3.17;;;1.50;;
14326;SDS011;7247;53.330;-1.180;2024-02-26T07:08:38;4.23;;;1.53;;
14326;SDS011;7247;53.330;-1.180;2024-02-26T07:11:06;6.00;;;1.47;;
14326;SDS011;7247;53.330;-1.180;2024-02-26T07:13:34;3.00;;;1.90;;
14326;SDS011;7247;53.330;-1.180;2024-02-26T07:16:01;4.07;;;1.93;;
14326;SDS011;7247;53.330;-1.180;2024-02-26T07:18:27;5.37;;;2.10;;
14326;SDS011;7247;53.330;-1.180;2024-02-26T07:20:54;5.83;;;2.10;;
14326;SDS011;7247;53.330;-1.180;2024-02-26T07:23:20;4.83;;;2.10;;
14326;SDS011;7247;53.330;-1.180;2024-02-26T07:25:47;5.77;;;2.23;;
14326;SDS011;7247;53.330;-1.180;2024-02-26T07:28:15;4.37;;;2.60;;
14326;SDS011;7247;53.330;-1.180;2024-02-26T07:30:42;7.30;;;2.60;;
14326;SDS011;7247;53.330;-1.180;2024-02-26T07:33:09;5.23;;;3.00;;
14326;SDS011;7247;53.330;-1.180;2024-02-26T07:35:35;4.60;;;2.63;;
14326;SDS011;7247;53.330;-1.180;2024-02-26T07:38:03;7.17;;;3.23;;
14326;SDS011;7247;53.330;-1.180;2024-02-26T07:40:30;8.77;;;2.80;;
14326;SDS011;7247;53.330;-1.180;2024-02-26T07:42:56;5.70;;;2.67;;
14326;SDS011;7247;53.330;-1.180;2024-02-26T07:45:24;5.57;;;2.80;;
14326;SDS011;7247;53.330;-1.180;2024-02-26T07:47:52;5.23;;;2.70;;
14326;SDS011;7247;53.330;-1.180;2024-02-26T07:50:18;4.93;;;2.90;;
14326;SDS011;7247;53.330;-1.180;2024-02-26T07:52:46;5.80;;;2.50;;
14326;SDS011;7247;53.330;-1.180;2024-02-26T07:55:12;4.73;;;2.30;;
14326;SDS011;7247;53.330;-1.180;2024-02-26T07:57:41;9.03;;;3.00;;
14326;SDS011;7247;53.330;-1.180;2024-02-26T08:00:08;4.57;;;2.07;;
14326;SDS011;7247;53.330;-1.180;2024-02-26T08:02:35;7.73;;;2.80;;
14326;SDS011;7247;53.330;-1.180;2024-02-26T08:05:03;4.83;;;2.30;;
14326;SDS011;7247;53.330;-1.180;2024-02-26T08:07:29;4.53;;;2.20;;
14326;SDS011;7247;53.330;-1.180;2024-02-26T08:09:56;7.00;;;2.50;;
14326;SDS011;7247;53.330;-1.180;2024-02-26T08:12:22;3.07;;;2.00;;
14326;SDS011;7247;53.330;-1.180;2024-02-26T08:14:49;4.27;;;2.23;;
14326;SDS011;7247;53.330;-1.180;2024-02-26T08:17:16;7.17;;;2.30;;
14326;SDS011;7247;53.330;-1.180;2024-02-26T08:19:43;7.33;;;2.10;;
14326;SDS011;7247;53.330;-1.180;2024-02-26T08:22:11;6.00;;;2.40;;
14326;SDS011;7247;53.330;-1.180;2024-02-26T08:24:41;4.93;;;2.20;;
14326;SDS011;7247;53.330;-1.180;2024-02-26T08:27:07;5.63;;;2.43;;
14326;SDS011;7247;53.330;-1.180;2024-02-26T08:29:34;4.30;;;2.30;;
14326;SDS011;7247;53.330;-1.180;2024-02-26T08:32:00;4.73;;;2.60;;
14326;SDS011;7247;53.330;-1.180;2024-02-26T08:34:27;8.57;;;2.60;;
14326;SDS011;7247;53.330;-1.180;2024-02-26T08:36:53;4.57;;;2.40;;
14326;SDS011;7247;53.330;-1.180;2024-02-26T08:39:21;4.50;;;2.30;;
14326;SDS011;7247;53.330;-1.180;2024-02-26T08:41:48;6.43;;;2.33;;
14326;SDS011;7247;53.330;-1.180;2024-02-26T08:44:14;9.07;;;2.83;;
14326;SDS011;7247;53.330;-1.180;2024-02-26T08:46:41;6.07;;;2.20;;
14326;SDS011;7247;53.330;-1.180;2024-02-26T08:49:07;6.90;;;2.33;;
14326;SDS011;7247;53.330;-1.180;2024-02-26T08:51:34;6.33;;;2.83;;
14326;SDS011;7247;53.330;-1.180;2024-02-26T08:54:00;5.43;;;2.57;;
14326;SDS011;7247;53.330;-1.180;2024-02-26T08:56:28;11.23;;;3.57;;
14326;SDS011;7247;53.330;-1.180;2024-02-26T08:58:55;6.23;;;2.73;;
14326;SDS011;7247;53.330;-1.180;2024-02-26T09:01:22;5.33;;;2.50;;
14326;SDS011;7247;53.330;-1.180;2024-02-26T09:03:49;6.40;;;2.50;;
14326;SDS011;7247;53.330;-1.180;2024-02-26T09:06:16;7.70;;;3.10;;
14326;SDS011;7247;53.330;-1.180;2024-02-26T09:08:42;7.10;;;2.47;;
14326;SDS011;7247;53.330;-1.180;2024-02-26T09:11:09;6.73;;;2.50;;
14326;SDS011;7247;53.330;-1.180;2024-02-26T09:13:37;6.20;;;2.17;;
14326;SDS011;7247;53.330;-1.180;2024-02-26T09:16:04;6.97;;;1.80;;
14326;SDS011;7247;53.330;-1.180;2024-02-26T09:18:31;5.37;;;2.57;;
14326;SDS011;7247;53.330;-1.180;2024-02-26T09:20:57;6.40;;;2.27;;
14326;SDS011;7247;53.330;-1.180;2024-02-26T09:23:24;5.83;;;2.30;;
14326;SDS011;7247;53.330;-1.180;2024-02-26T09:25:50;5.63;;;2.10;;
14326;SDS011;7247;53.330;-1.180;2024-02-26T09:28:17;6.33;;;2.10;;
14326;SDS011;7247;53.330;-1.180;2024-02-26T09:30:45;4.73;;;1.93;;
14326;SDS011;7247;53.330;-1.180;2024-02-26T09:33:13;5.90;;;1.90;;
14326;SDS011;7247;53.330;-1.180;2024-02-26T09:35:39;7.17;;;2.20;;
14326;SDS011;7247;53.330;-1.180;2024-02-26T09:38:06;6.47;;;2.30;;
14326;SDS011;7247;53.330;-1.180;2024-02-26T09:40:32;4.23;;;1.93;;
14326;SDS011;7247;53.330;-1.180;2024-02-26T09:42:59;5.43;;;2.20;;
14326;SDS011;7247;53.330;-1.180;2024-02-26T09:45:26;7.70;;;2.40;;
14326;SDS011;7247;53.330;-1.180;2024-02-26T09:47:55;2.87;;;1.70;;
14326;SDS011;7247;53.330;-1.180;2024-02-26T09:50:22;4.33;;;1.80;;
14326;SDS011;7247;53.330;-1.180;2024-02-26T09:52:49;5.17;;;2.37;;
14326;SDS011;7247;53.330;-1.180;2024-02-26T09:55:16;4.97;;;1.90;;
14326;SDS011;7247;53.330;-1.180;2024-02-26T09:57:44;3.50;;;1.63;;
14326;SDS011;7247;53.330;-1.180;2024-02-26T10:00:11;2.70;;;1.50;;
14326;SDS011;7247;53.330;-1.180;2024-02-26T10:02:40;4.43;;;1.70;;
14326;SDS011;7247;53.330;-1.180;2024-02-26T10:05:09;7.63;;;1.40;;
14326;SDS011;7247;53.330;-1.180;2024-02-26T10:07:36;4.47;;;1.20;;
14326;SDS011;7247;53.330;-1.180;2024-02-26T10:10:03;3.63;;;1.37;;
14326;SDS011;7247;53.330;-1.180;2024-02-26T10:12:30;5.47;;;1.40;;
14326;SDS011;7247;53.330;-1.180;2024-02-26T10:14:57;5.97;;;1.23;;
14326;SDS011;7247;53.330;-1.180;2024-02-26T10:17:24;2.73;;;1.13;;
14326;SDS011;7247;53.330;-1.180;2024-02-26T10:19:51;4.97;;;1.60;;
14326;SDS011;7247;53.330;-1.180;2024-02-26T10:22:22;4.03;;;1.40;;
14326;SDS011;7247;53.330;-1.180;2024-02-26T10:24:49;4.60;;;1.70;;
14326;SDS011;7247;53.330;-1.180;2024-02-26T10:27:15;6.63;;;1.87;;
14326;SDS011;7247;53.330;-1.180;2024-02-26T10:29:42;4.33;;;1.40;;
14326;SDS011;7247;53.330;-1.180;2024-02-26T10:32:09;4.20;;;1.40;;
14326;SDS011;7247;53.330;-1.180;2024-02-26T10:34:38;7.47;;;1.60;;
14326;SDS011;7247;53.330;-1.180;2024-02-26T10:37:06;5.23;;;1.40;;
14326;SDS011;7247;53.330;-1.180;2024-02-26T10:39:35;2.73;;;1.20;;
14326;SDS011;7247;53.330;-1.180;2024-02-26T10:42:02;2.77;;;1.40;;
14326;SDS011;7247;53.330;-1.180;2024-02-26T10:44:34;2.50;;;1.20;;
14326;SDS011;7247;53.330;-1.180;2024-02-26T10:47:01;3.97;;;1.40;;
14326;SDS011;7247;53.330;-1.180;2024-02-26T10:49:27;2.90;;;1.10;;
14326;SDS011;7247;53.330;-1.180;2024-02-26T10:51:55;7.77;;;1.23;;
14326;SDS011;7247;53.330;-1.180;2024-02-26T10:54:22;2.87;;;1.00;;
14326;SDS011;7247;53.330;-1.180;2024-02-26T10:56:54;3.97;;;1.20;;
14326;SDS011;7247;53.330;-1.180;2024-02-26T10:59:22;1.77;;;0.90;;
14326;SDS011;7247;53.330;-1.180;2024-02-26T11:01:48;1.80;;;1.07;;
14326;SDS011;7247;53.330;-1.180;2024-02-26T11:04:15;3.53;;;0.87;;
14326;SDS011;7247;53.330;-1.180;2024-02-26T11:06:42;2.83;;;0.90;;
14326;SDS011;7247;53.330;-1.180;2024-02-26T11:09:09;3.07;;;1.00;;
14326;SDS011;7247;53.330;-1.180;2024-02-26T11:11:38;6.40;;;1.10;;
14326;SDS011;7247;53.330;-1.180;2024-02-26T11:14:06;4.60;;;1.07;;
14326;SDS011;7247;53.330;-1.180;2024-02-26T11:16:34;4.00;;;1.20;;
14326;SDS011;7247;53.330;-1.180;2024-02-26T11:19:01;2.07;;;1.00;;
14326;SDS011;7247;53.330;-1.180;2024-02-26T11:21:28;3.90;;;1.30;;
14326;SDS011;7247;53.330;-1.180;2024-02-26T11:24:03;5.63;;;1.23;;
14326;SDS011;7247;53.330;-1.180;2024-02-26T11:26:30;3.87;;;1.00;;
14326;SDS011;7247;53.330;-1.180;2024-02-26T11:28:57;3.83;;;1.60;;
14326;SDS011;7247;53.330;-1.180;2024-02-26T11:31:25;4.57;;;1.67;;
14326;SDS011;7247;53.330;-1.180;2024-02-26T11:33:52;4.80;;;1.80;;
14326;SDS011;7247;53.330;-1.180;2024-02-26T11:36:19;4.10;;;1.17;;
14326;SDS011;7247;53.330;-1.180;2024-02-26T11:38:46;2.13;;;1.20;;
14326;SDS011;7247;53.330;-1.180;2024-02-26T11:41:16;7.47;;;1.77;;
14326;SDS011;7247;53.330;-1.180;2024-02-26T11:43:49;6.10;;;1.67;;
14326;SDS011;7247;53.330;-1.180;2024-02-26T11:46:25;9.40;;;2.30;;
14326;SDS011;7247;53.330;-1.180;2024-02-26T11:48:53;4.10;;;1.40;;
14326;SDS011;7247;53.330;-1.180;2024-02-26T11:51:24;3.50;;;1.70;;
14326;SDS011;7247;53.330;-1.180;2024-02-26T11:53:50;5.90;;;1.73;;
14326;SDS011;7247;53.330;-1.180;2024-02-26T11:56:21;6.43;;;1.80;;
14326;SDS011;7247;53.330;-1.180;2024-02-26T11:58:48;4.30;;;1.53;;
14326;SDS011;7247;53.330;-1.180;2024-02-26T12:04:02;8.83;;;2.00;;
14326;SDS011;7247;53.330;-1.180;2024-02-26T12:06:28;5.27;;;2.07;;
14326;SDS011;7247;53.330;-1.180;2024-02-26T12:08:55;5.70;;;1.70;;
14326;SDS011;7247;53.330;-1.180;2024-02-26T12:11:22;6.67;;;1.90;;
14326;SDS011;7247;53.330;-1.180;2024-02-26T12:13:48;5.53;;;1.90;;
14326;SDS011;7247;53.330;-1.180;2024-02-26T12:18:56;6.50;;;1.47;;
14326;SDS011;7247;53.330;-1.180;2024-02-26T12:21:24;5.83;;;2.87;;
14326;SDS011;7247;53.330;-1.180;2024-02-26T12:23:51;2.40;;;1.50;;
14326;SDS011;7247;53.330;-1.180;2024-02-26T12:26:18;3.77;;;1.80;;
14326;SDS011;7247;53.330;-1.180;2024-02-26T12:28:46;6.17;;;1.90;;
14326;SDS011;7247;53.330;-1.180;2024-02-26T12:31:13;6.83;;;1.87;;
14326;SDS011;7247;53.330;-1.180;2024-02-26T12:33:39;8.00;;;2.00;;
14326;SDS011;7247;53.330;-1.180;2024-02-26T12:36:06;7.33;;;2.90;;
14326;SDS011;7247;53.330;-1.180;2024-02-26T12:38:34;7.50;;;2.07;;
14326;SDS011;7247;53.330;-1.180;2024-02-26T12:41:02;4.30;;;1.80;;
14326;SDS011;7247;53.330;-1.180;2024-02-26T12:43:28;7.10;;;2.40;;
14326;SDS011;7247;53.330;-1.180;2024-02-26T12:45:56;5.10;;;2.00;;
14326;SDS011;7247;53.330;-1.180;2024-02-26T12:48:22;4.57;;;1.77;;
14326;SDS011;7247;53.330;-1.180;2024-02-26T12:50:48;6.33;;;2.60;;
14326;SDS011;7247;53.330;-1.180;2024-02-26T12:53:15;7.37;;;1.77;;
14326;SDS011;7247;53.330;-1.180;2024-02-26T12:55:43;6.17;;;2.07;;
14326;SDS011;7247;53.330;-1.180;2024-02-26T12:58:09;3.33;;;1.67;;
14326;SDS011;7247;53.330;-1.180;2024-02-26T13:00:36;6.97;;;1.47;;
14326;SDS011;7247;53.330;-1.180;2024-02-26T13:03:03;1.70;;;1.30;;
14326;SDS011;7247;53.330;-1.180;2024-02-26T13:05:29;3.23;;;1.60;;
14326;SDS011;7247;53.330;-1.180;2024-02-26T13:07:56;4.83;;;1.43;;
14326;SDS011;7247;53.330;-1.180;2024-02-26T13:10:23;4.83;;;1.50;;
14326;SDS011;7247;53.330;-1.180;2024-02-26T13:12:51;3.40;;;1.33;;
14326;SDS011;7247;53.330;-1.180;2024-02-26T13:15:18;4.17;;;1.47;;
14326;SDS011;7247;53.330;-1.180;2024-02-26T13:17:45;4.97;;;1.40;;
14326;SDS011;7247;53.330;-1.180;2024-02-26T13:20:12;4.17;;;1.27;;
14326;SDS011;7247;53.330;-1.180;2024-02-26T13:22:40;2.87;;;1.30;;
14326;SDS011;7247;53.330;-1.180;2024-02-26T13:25:07;5.07;;;1.53;;
14326;SDS011;7247;53.330;-1.180;2024-02-26T13:27:34;2.23;;;0.90;;
14326;SDS011;7247;53.330;-1.180;2024-02-26T13:30:06;5.07;;;1.50;;
14326;SDS011;7247;53.330;-1.180;2024-02-26T13:32:35;5.30;;;2.10;;
14326;SDS011;7247;53.330;-1.180;2024-02-26T13:35:05;3.13;;;1.40;;
14326;SDS011;7247;53.330;-1.180;2024-02-26T13:37:32;2.33;;;1.10;;
14326;SDS011;7247;53.330;-1.180;2024-02-26T13:39:59;2.87;;;1.40;;
14326;SDS011;7247;53.330;-1.180;2024-02-26T13:42:29;4.27;;;1.47;;
14326;SDS011;7247;53.330;-1.180;2024-02-26T13:44:55;7.03;;;1.50;;
14326;SDS011;7247;53.330;-1.180;2024-02-26T13:47:23;2.30;;;1.00;;
14326;SDS011;7247;53.330;-1.180;2024-02-26T13:49:50;3.73;;;1.37;;
14326;SDS011;7247;53.330;-1.180;2024-02-26T13:52:16;3.97;;;1.40;;
14326;SDS011;7247;53.330;-1.180;2024-02-26T13:54:43;3.83;;;1.23;;
14326;SDS011;7247;53.330;-1.180;2024-02-26T13:57:09;2.43;;;1.30;;
14326;SDS011;7247;53.330;-1.180;2024-02-26T13:59:36;4.03;;;1.20;;
14326;SDS011;7247;53.330;-1.180;2024-02-26T14:02:02;4.23;;;1.63;;
14326;SDS011;7247;53.330;-1.180;2024-02-26T14:04:30;2.53;;;1.47;;
14326;SDS011;7247;53.330;-1.180;2024-02-26T14:06:57;3.90;;;1.30;;
14326;SDS011;7247;53.330;-1.180;2024-02-26T14:09:26;2.70;;;1.10;;
14326;SDS011;7247;53.330;-1.180;2024-02-26T14:11:53;2.30;;;1.00;;
14326;SDS011;7247;53.330;-1.180;2024-02-26T14:14:19;2.90;;;1.20;;
14326;SDS011;7247;53.330;-1.180;2024-02-26T14:16:45;3.03;;;1.17;;
14326;SDS011;7247;53.330;-1.180;2024-02-26T14:19:12;3.43;;;1.00;;
14326;SDS011;7247;53.330;-1.180;2024-02-26T14:21:40;3.97;;;1.20;;
14326;SDS011;7247;53.330;-1.180;2024-02-26T14:24:07;1.63;;;0.90;;
14326;SDS011;7247;53.330;-1.180;2024-02-26T14:26:33;1.17;;;0.70;;
14326;SDS011;7247;53.330;-1.180;2024-02-26T14:29:00;3.10;;;0.97;;
14326;SDS011;7247;53.330;-1.180;2024-02-26T14:31:26;7.40;;;1.57;;
14326;SDS011;7247;53.330;-1.180;2024-02-26T14:33:53;4.80;;;1.10;;
14326;SDS011;7247;53.330;-1.180;2024-02-26T14:36:19;1.23;;;0.90;;
14326;SDS011;7247;53.330;-1.180;2024-02-26T14:38:47;3.67;;;1.00;;
14326;SDS011;7247;53.330;-1.180;2024-02-26T14:41:14;3.10;;;1.10;;
14326;SDS011;7247;53.330;-1.180;2024-02-26T14:43:40;3.07;;;1.00;;
14326;SDS011;7247;53.330;-1.180;2024-02-26T14:46:07;4.03;;;1.00;;
14326;SDS011;7247;53.330;-1.180;2024-02-26T14:48:33;3.80;;;1.10;;
14326;SDS011;7247;53.330;-1.180;2024-02-26T14:51:00;3.23;;;1.20;;